createdAt,value
2022-12-25T00:01:40.723Z,13.06
2022-12-25T00:06:44.417Z,13.06
2022-12-25T00:11:47.924Z,13.05
2022-12-25T00:16:51.549Z,13.05
2022-12-25T00:21:56.303Z,13.06
2022-12-25T00:26:59.841Z,13.08
2022-12-25T00:32:03.861Z,13.11
2022-12-25T00:37:07.651Z,13.17
2022-12-25T00:42:11.860Z,13.20
2022-12-25T00:47:16.249Z,13.26
2022-12-25T00:52:19.753Z,13.33
2022-12-25T00:57:23.556Z,13.40
2022-12-25T01:02:28.906Z,13.45
2022-12-25T01:07:32.534Z,13.43
2022-12-25T01:12:39.815Z,13.35
2022-12-25T01:17:44.042Z,13.29
2022-12-25T01:22:48.116Z,13.22
2022-12-25T01:27:51.655Z,13.16
2022-12-25T01:32:55.240Z,13.10
2022-12-25T01:37:58.647Z,13.10
2022-12-25T01:43:02.147Z,13.09
2022-12-25T01:48:10.380Z,13.11
2022-12-25T01:53:14.201Z,13.12
2022-12-25T01:58:19.720Z,13.09
2022-12-25T02:03:24.363Z,13.12
2022-12-25T02:08:28.140Z,13.11
2022-12-25T02:13:31.850Z,13.11
2022-12-25T02:18:58.687Z,13.14
2022-12-25T02:24:30.800Z,13.13
2022-12-25T02:29:39.847Z,13.12
2022-12-25T02:34:56.600Z,13.14
2022-12-25T02:40:17.117Z,13.09
2022-12-25T02:45:28.530Z,13.02
2022-12-25T02:50:32.506Z,12.95
2022-12-25T02:55:42.524Z,12.98
2022-12-25T03:00:49.571Z,12.90
2022-12-25T03:05:57.669Z,12.86
2022-12-25T03:11:07.526Z,12.82
2022-12-25T03:16:12.612Z,12.81
2022-12-25T03:21:16.288Z,12.88
2022-12-25T03:26:20.115Z,12.88
2022-12-25T03:31:37.192Z,12.89
2022-12-25T03:36:54.663Z,12.88
2022-12-25T03:42:01.238Z,12.87
2022-12-25T03:47:20.715Z,12.84
2022-12-25T03:52:24.428Z,12.94
2022-12-25T03:57:27.792Z,12.98
2022-12-25T04:02:32.732Z,13.03
2022-12-25T04:07:36.819Z,13.01
2022-12-25T04:12:40.439Z,13.04
2022-12-25T04:17:43.865Z,13.07
2022-12-25T04:22:47.422Z,13.12
2022-12-25T04:27:50.805Z,13.12
2022-12-25T04:32:57.743Z,12.98
2022-12-25T04:38:01.146Z,12.91
2022-12-25T04:43:04.809Z,12.85
2022-12-25T04:48:08.529Z,12.76
2022-12-25T04:53:14.043Z,12.73
2022-12-25T04:58:19.040Z,12.71
2022-12-25T05:03:22.627Z,12.73
2022-12-25T05:08:26.868Z,12.78
2022-12-25T05:13:30.301Z,12.89
2022-12-25T05:18:33.965Z,12.99
2022-12-25T05:23:38.384Z,13.05
2022-12-25T05:28:43.131Z,13.09
2022-12-25T05:33:49.225Z,13.16
2022-12-25T05:38:52.871Z,13.24
2022-12-25T05:43:56.471Z,13.33
2022-12-25T05:48:59.849Z,13.40
2022-12-25T05:54:03.051Z,13.51
2022-12-25T05:59:06.550Z,13.61
2022-12-25T06:04:13.020Z,13.69
2022-12-25T06:09:16.658Z,13.82
2022-12-25T06:14:20.485Z,13.90
2022-12-25T06:19:24.107Z,13.98
2022-12-25T06:24:27.690Z,14.07
2022-12-25T06:29:31.230Z,14.15
2022-12-25T06:34:34.795Z,14.18
2022-12-25T06:39:38.351Z,14.18
2022-12-25T06:44:42.242Z,14.23
2022-12-25T06:49:45.840Z,14.25
2022-12-25T06:54:50.238Z,14.22
2022-12-25T06:59:55.540Z,14.19
2022-12-25T07:05:00.414Z,14.25
2022-12-25T07:10:05.349Z,14.36
2022-12-25T07:15:09.559Z,14.37
2022-12-25T07:20:13.125Z,14.50
2022-12-25T07:25:18.651Z,14.68
2022-12-25T07:30:22.319Z,14.78
2022-12-25T07:35:25.949Z,14.84
2022-12-25T07:40:29.527Z,14.90
2022-12-25T07:45:33.781Z,14.94
2022-12-25T07:50:37.359Z,14.97
2022-12-25T07:55:41.278Z,14.86
2022-12-25T08:00:44.819Z,14.69
2022-12-25T08:05:48.925Z,14.65
2022-12-25T08:10:51.956Z,14.77
2022-12-25T08:15:59.663Z,14.98
2022-12-25T08:21:14.584Z,15.03
2022-12-25T08:26:21.356Z,14.94
2022-12-25T08:31:29.662Z,14.75
2022-12-25T08:36:33.112Z,14.66
2022-12-25T08:41:36.717Z,14.73
2022-12-25T08:46:40.309Z,14.89
2022-12-25T08:51:45.077Z,15.09
2022-12-25T08:56:48.385Z,15.23
2022-12-25T09:01:51.817Z,15.32
2022-12-25T09:06:55.464Z,15.38
2022-12-25T09:11:59.579Z,15.46
2022-12-25T09:17:04.109Z,15.51
2022-12-25T09:22:07.382Z,15.62
2022-12-25T09:27:11.244Z,15.69
2022-12-25T09:32:14.509Z,15.82
2022-12-25T09:37:18.056Z,16.01
2022-12-25T09:42:25.388Z,16.24
2022-12-25T09:47:35.513Z,16.46
2022-12-25T09:52:49.552Z,16.70
2022-12-25T09:57:57.442Z,16.84
2022-12-25T10:03:09.779Z,16.71
2022-12-25T10:08:20.135Z,16.60
2022-12-25T10:13:37.164Z,16.61
2022-12-25T10:18:43.725Z,16.64
2022-12-25T10:23:58.850Z,16.60
2022-12-25T10:29:15.873Z,16.69
2022-12-25T10:34:19.547Z,16.65
2022-12-25T10:39:25.940Z,16.54
2022-12-25T10:44:30.110Z,16.58
2022-12-25T10:49:37.654Z,16.69
2022-12-25T10:54:41.241Z,16.67
2022-12-25T10:59:53.048Z,16.44
2022-12-25T11:05:13.451Z,16.36
2022-12-25T11:10:23.828Z,16.15
2022-12-25T11:15:40.028Z,16.04
2022-12-25T11:20:54.846Z,15.83
2022-12-25T11:26:01.377Z,15.69
2022-12-25T11:31:04.774Z,15.59
2022-12-25T11:36:29.541Z,15.51
2022-12-25T11:41:36.612Z,15.51
2022-12-25T11:46:45.530Z,15.56
2022-12-25T11:51:54.197Z,15.62
2022-12-25T11:57:02.531Z,15.54
2022-12-25T12:02:22.350Z,15.41
2022-12-25T12:07:29.500Z,15.15
2022-12-25T12:12:56.529Z,14.84
2022-12-25T12:18:10.978Z,14.73
2022-12-25T12:23:17.035Z,14.78
2022-12-25T12:28:28.020Z,14.68
2022-12-25T12:33:57.948Z,14.52
2022-12-25T12:39:01.548Z,14.28
2022-12-25T12:44:06.027Z,14.01
2022-12-25T12:49:25.803Z,13.74
2022-12-25T12:54:30.878Z,13.38
2022-12-25T12:59:44.495Z,13.14
2022-12-25T13:04:56.705Z,12.89
2022-12-25T13:10:48.185Z,12.64
2022-12-25T13:15:52.711Z,12.45
2022-12-25T13:21:00.197Z,12.34
2022-12-25T13:26:14.216Z,12.20
2022-12-25T13:31:22.901Z,12.08
2022-12-25T13:36:29.094Z,12.01
2022-12-25T13:41:42.552Z,11.97
2022-12-25T13:46:47.366Z,11.98
2022-12-25T13:51:51.718Z,11.94
2022-12-25T13:56:55.919Z,11.88
2022-12-25T14:01:59.724Z,11.80
2022-12-25T14:07:11.181Z,11.71
2022-12-25T14:12:19.261Z,11.60
2022-12-25T14:17:23.869Z,11.56
2022-12-25T14:22:28.799Z,11.59
2022-12-25T14:27:32.162Z,11.64
2022-12-25T14:32:43.637Z,11.71
2022-12-25T14:37:54.560Z,11.78
2022-12-25T14:43:03.908Z,11.80
2022-12-25T14:48:25.291Z,11.83
2022-12-25T14:53:40.012Z,11.82
2022-12-25T14:58:49.045Z,11.83
2022-12-25T15:04:07.885Z,11.87
2022-12-25T15:09:16.976Z,11.84
2022-12-25T15:14:20.586Z,11.78
2022-12-25T15:19:36.860Z,11.78
2022-12-25T15:24:41.199Z,11.76
2022-12-25T15:30:09.378Z,11.70
2022-12-25T15:35:18.494Z,11.66
2022-12-25T15:40:22.324Z,11.61
2022-12-25T15:45:28.903Z,11.58
2022-12-25T15:50:32.605Z,11.54
2022-12-25T15:55:36.303Z,11.54
2022-12-25T16:00:39.795Z,11.57
2022-12-25T16:05:43.388Z,11.57
2022-12-25T16:10:47.485Z,11.58
2022-12-25T16:15:50.933Z,11.58
2022-12-25T16:20:54.603Z,11.55
2022-12-25T16:25:57.850Z,11.56
2022-12-25T16:31:01.164Z,11.54
2022-12-25T16:36:05.506Z,11.56
2022-12-25T16:41:09.031Z,11.58
2022-12-25T16:46:19.657Z,11.59
2022-12-25T16:51:24.612Z,11.61
2022-12-25T16:56:28.405Z,11.63
2022-12-25T17:01:32.042Z,11.65
2022-12-25T17:06:36.113Z,11.68
2022-12-25T17:11:39.724Z,11.73
2022-12-25T17:16:43.224Z,11.73
2022-12-25T17:21:47.461Z,11.75
2022-12-25T17:26:50.886Z,11.72
2022-12-25T17:31:54.384Z,11.67
2022-12-25T17:36:57.969Z,11.62
2022-12-25T17:42:01.612Z,11.60
2022-12-25T17:47:05.439Z,11.58
2022-12-25T17:52:08.773Z,11.60
2022-12-25T17:57:12.323Z,11.60
2022-12-25T18:02:16.101Z,11.60
2022-12-25T18:07:19.697Z,11.60
2022-12-25T18:12:23.113Z,11.61
2022-12-25T18:17:26.988Z,11.61
2022-12-25T18:22:30.493Z,11.60
2022-12-25T18:27:34.175Z,11.63
2022-12-25T18:32:38.869Z,11.69
2022-12-25T18:37:43.265Z,11.76
2022-12-25T18:42:46.631Z,11.83
2022-12-25T18:47:50.463Z,11.88
2022-12-25T18:52:54.783Z,11.91
2022-12-25T18:57:59.016Z,11.90
2022-12-25T19:03:02.738Z,11.94
2022-12-25T19:08:08.240Z,11.93
2022-12-25T19:13:11.928Z,11.95
2022-12-25T19:18:19.198Z,11.96
2022-12-25T19:23:26.978Z,12.00
2022-12-25T19:28:30.657Z,12.03
2022-12-25T19:33:35.124Z,11.88
2022-12-25T19:38:39.907Z,11.73
2022-12-25T19:43:45.103Z,11.65
2022-12-25T19:48:48.969Z,11.61
2022-12-25T19:53:54.028Z,11.66
2022-12-25T19:59:00.607Z,11.71
2022-12-25T20:04:04.428Z,11.77
2022-12-25T20:09:11.364Z,11.85
2022-12-25T20:14:16.918Z,11.90
2022-12-25T20:19:20.467Z,11.98
2022-12-25T20:24:25.004Z,12.05
2022-12-25T20:29:29.173Z,12.15
2022-12-25T20:34:33.939Z,12.20
2022-12-25T20:39:38.506Z,12.26
2022-12-25T20:44:42.148Z,12.30
2022-12-25T20:49:47.682Z,12.37
2022-12-25T20:54:52.244Z,12.38
2022-12-25T20:59:55.896Z,12.38
2022-12-25T21:04:59.259Z,12.31
2022-12-25T21:10:02.521Z,12.30
2022-12-25T21:15:13.371Z,12.28
2022-12-25T21:20:19.353Z,12.25
2022-12-25T21:25:23.021Z,12.24
2022-12-25T21:30:26.529Z,12.19
2022-12-25T21:35:30.083Z,12.15
2022-12-25T21:40:37.853Z,12.18
2022-12-25T21:45:42.594Z,12.14
2022-12-25T21:50:47.999Z,12.10
2022-12-25T21:56:00.705Z,12.07
2022-12-25T22:01:05.093Z,12.03
2022-12-25T22:06:08.659Z,11.96
2022-12-25T22:11:12.312Z,11.88
2022-12-25T22:16:15.979Z,11.77
2022-12-25T22:21:20.787Z,11.69
2022-12-25T22:26:24.208Z,11.67
2022-12-25T22:31:28.519Z,11.65
2022-12-25T22:36:31.921Z,11.66
2022-12-25T22:41:35.553Z,11.65
2022-12-25T22:46:39.110Z,11.58
2022-12-25T22:51:44.592Z,11.55
2022-12-25T22:56:51.016Z,11.53
2022-12-25T23:01:55.307Z,11.45
2022-12-25T23:06:59.127Z,11.34
2022-12-25T23:12:02.645Z,11.29
2022-12-25T23:17:12.121Z,11.23
2022-12-25T23:22:15.858Z,11.14
2022-12-25T23:27:19.342Z,11.05
2022-12-25T23:32:27.196Z,10.93
2022-12-25T23:37:31.107Z,10.73
2022-12-25T23:42:34.664Z,10.71
2022-12-25T23:47:38.563Z,10.69
2022-12-25T23:52:42.182Z,10.63
2022-12-25T23:57:45.662Z,10.58
